createdAt,value
2022-12-23T08:10:15.642Z,98860.56
2022-12-23T08:13:20.402Z,98870.50
2022-12-23T08:16:25.204Z,98886.94
2022-12-23T08:19:30.110Z,98884.88
2022-12-23T08:22:35.073Z,98894.88
2022-12-23T08:25:42.513Z,98909.34
2022-12-23T08:28:48.802Z,98903.22
2022-12-23T08:31:54.322Z,98901.25
2022-12-23T08:34:59.875Z,98889.50
2022-12-23T08:38:04.647Z,98887.97
2022-12-23T08:41:15.826Z,98885.72
2022-12-23T08:44:20.940Z,98878.28
2022-12-23T08:47:25.722Z,98877.28
2022-12-23T08:50:30.496Z,98880.81
2022-12-23T08:53:35.855Z,98885.81
2022-12-23T08:56:44.895Z,98886.06
2022-12-23T08:59:49.880Z,98884.63
2022-12-23T09:02:54.784Z,98875.63
2022-12-23T09:05:59.756Z,98883.97
2022-12-23T09:09:04.734Z,98870.31
2022-12-23T09:12:12.540Z,98880.44
2022-12-23T09:15:17.304Z,98871.78
2022-12-23T09:18:22.457Z,98872.22
2022-12-23T09:21:27.816Z,98860.16
2022-12-23T09:24:32.752Z,98859.69
2022-12-23T09:27:40.221Z,98863.88
2022-12-23T09:30:45.078Z,98868.78
2022-12-23T09:33:51.220Z,98875.06
2022-12-23T09:36:56.068Z,98880.38
2022-12-23T09:40:00.841Z,98888.53
2022-12-23T09:43:23.541Z,98885.59
2022-12-23T09:46:32.859Z,98886.22
2022-12-23T09:49:43.249Z,98882.66
2022-12-23T09:53:00.248Z,98877.81
2022-12-23T09:56:11.237Z,98876.06
2022-12-23T09:59:31.473Z,98871.47
2022-12-23T10:02:50.242Z,98870.50
2022-12-23T10:06:05.674Z,98859.69
2022-12-23T10:09:13.920Z,98864.16
2022-12-23T10:12:28.098Z,98861.94
2022-12-23T10:15:40.717Z,98866.53
2022-12-23T10:18:53.050Z,98865.50
2022-12-23T10:22:05.162Z,98856.31
2022-12-23T10:25:18.076Z,98850.50
2022-12-23T10:28:23.054Z,98849.78
2022-12-23T10:31:46.210Z,98852.94
2022-12-23T10:34:59.375Z,98855.84
2022-12-23T10:38:15.889Z,98850.63
2022-12-23T10:41:31.269Z,98846.16
2022-12-23T10:45:02.175Z,98831.63
2022-12-23T10:48:24.768Z,98835.44
2022-12-23T10:51:34.091Z,98829.25
2022-12-23T10:54:40.558Z,98826.31
2022-12-23T10:57:45.994Z,98819.88
2022-12-23T11:00:56.263Z,98809.75
2022-12-23T11:04:11.766Z,98797.59
2022-12-23T11:07:43.630Z,98801.63
2022-12-23T11:10:44.855Z,98805.81
2022-12-23T11:13:51.205Z,98800.44
2022-12-23T11:16:56.051Z,98787.38
2022-12-23T11:20:17.360Z,98791.31
2022-12-23T11:23:28.392Z,98782.78
2022-12-23T11:26:33.648Z,98778.88
2022-12-23T11:29:41.633Z,98771.72
2022-12-23T11:32:46.522Z,98787.09
2022-12-23T11:36:04.444Z,98783.09
2022-12-23T11:39:19.855Z,98764.50
2022-12-23T11:42:31.022Z,98754.44
2022-12-23T11:45:39.849Z,98739.78
2022-12-23T11:48:47.530Z,98749.38
2022-12-23T11:52:15.106Z,98762.41
2022-12-23T11:55:29.315Z,98745.53
2022-12-23T11:58:39.955Z,98748.06
2022-12-23T12:01:50.921Z,98731.44
2022-12-23T12:05:00.535Z,98734.28
2022-12-23T12:08:13.464Z,98732.88
2022-12-23T12:11:22.234Z,98738.00
2022-12-23T12:14:35.701Z,98732.84
2022-12-23T12:17:47.535Z,98732.63
2022-12-23T12:20:56.702Z,98727.88
2022-12-23T12:24:19.689Z,98721.44
2022-12-23T12:27:41.236Z,98718.06
2022-12-23T12:30:53.690Z,98708.56
2022-12-23T12:34:05.755Z,98699.09
2022-12-23T12:37:28.018Z,98694.28
2022-12-23T12:40:41.815Z,98688.59
2022-12-23T12:43:51.716Z,98685.16
2022-12-23T12:47:04.131Z,98687.56
2022-12-23T12:50:28.012Z,98666.03
2022-12-23T12:53:33.728Z,98655.78
2022-12-23T12:56:46.817Z,98650.41
2022-12-23T12:59:56.453Z,98636.63
2022-12-23T13:03:23.735Z,98626.00
2022-12-23T13:06:35.016Z,98628.66
2022-12-23T13:09:52.469Z,98616.47
2022-12-23T13:13:07.561Z,98607.50
2022-12-23T13:16:23.569Z,98604.81
2022-12-23T13:19:36.580Z,98606.78
2022-12-23T13:22:42.881Z,98603.41
2022-12-23T13:25:53.216Z,98604.56
2022-12-23T13:29:23.083Z,98599.88
2022-12-23T13:32:40.195Z,98586.19
2022-12-23T13:36:04.940Z,98586.66
2022-12-23T13:39:26.816Z,98585.59
2022-12-23T13:42:36.395Z,98575.53
2022-12-23T13:45:45.646Z,98567.38
2022-12-23T13:48:59.773Z,98562.66
2022-12-23T13:52:12.980Z,98556.34
2022-12-23T13:55:31.234Z,98542.44
2022-12-23T13:58:36.923Z,98535.06
2022-12-23T14:01:50.185Z,98529.00
2022-12-23T14:05:02.598Z,98537.38
2022-12-23T14:08:10.490Z,98525.59
2022-12-23T14:11:19.539Z,98526.53
2022-12-23T14:14:28.453Z,98531.44
2022-12-23T14:17:47.891Z,98536.00
2022-12-23T14:20:59.978Z,98521.63
2022-12-23T14:24:33.269Z,98518.81
2022-12-23T14:27:47.153Z,98509.09
2022-12-23T14:30:52.111Z,98508.41
2022-12-23T14:34:06.313Z,98516.22
2022-12-23T14:37:34.913Z,98516.94
2022-12-23T14:41:20.910Z,98508.88
2022-12-23T14:44:46.733Z,98508.41
2022-12-23T14:47:51.600Z,98497.28
2022-12-23T14:51:04.374Z,98478.34
2022-12-23T14:54:18.214Z,98481.75
2022-12-23T14:57:37.989Z,98474.59
2022-12-23T15:00:50.909Z,98473.47
2022-12-23T15:04:01.371Z,98464.34
2022-12-23T15:07:16.467Z,98452.59
2022-12-23T15:10:25.718Z,98460.81
2022-12-23T15:13:32.247Z,98450.16
2022-12-23T15:16:39.826Z,98433.19
2022-12-23T15:19:49.874Z,98433.06
2022-12-23T15:23:03.177Z,98412.72
2022-12-23T15:26:08.795Z,98416.56
2022-12-23T15:29:15.218Z,98420.91
2022-12-23T15:32:23.072Z,98426.81
2022-12-23T15:35:31.613Z,98422.75
2022-12-23T15:38:42.413Z,98420.66
2022-12-23T15:41:49.204Z,98418.56
2022-12-23T15:44:54.445Z,98423.13
2022-12-23T15:47:59.487Z,98428.84
2022-12-23T15:51:08.630Z,98428.75
2022-12-23T15:54:25.006Z,98419.50
2022-12-23T15:57:38.010Z,98420.66
2022-12-23T16:00:52.406Z,98416.22
2022-12-23T16:04:00.999Z,98418.91
2022-12-23T16:07:06.367Z,98415.16
2022-12-23T16:10:22.807Z,98412.03
2022-12-23T16:13:28.672Z,98405.91
2022-12-23T16:16:41.639Z,98394.66
2022-12-23T16:19:49.329Z,98391.28
2022-12-23T16:22:59.612Z,98390.56
2022-12-23T16:26:07.151Z,98398.03
2022-12-23T16:29:13.653Z,98388.06
2022-12-23T16:32:20.539Z,98393.47
2022-12-23T16:35:39.080Z,98393.69
2022-12-23T16:38:43.919Z,98392.97
2022-12-23T16:41:51.979Z,98401.72
2022-12-23T16:44:57.508Z,98398.53
2022-12-23T16:48:03.765Z,98395.34
2022-12-23T16:51:11.923Z,98390.59
2022-12-23T16:54:19.077Z,98392.34
2022-12-23T16:57:26.530Z,98394.94
2022-12-23T17:00:31.329Z,98395.03
2022-12-23T17:03:36.170Z,98390.59
